Time;durP1;ratioP1;P1;durP2;ratioP2;P2;SDS_P1;SDS_P2;PMS_P1;PMS_P2;Temp;Humidity;BMP_temperature;BMP_pressure;BME280_temperature;BME280_humidity;BME280_pressure;Samples;Min_cycle;Max_cycle;Signal;HPM_P1;HPM_P2
2023/03/21 00:01:39;;;;;;;2.70;1.90;;;;;;;;;;5005333;28;20819;-55
2023/03/21 00:04:05;;;;;;;6.13;2.77;;;;;;;;;;4990728;28;20439;-55
2023/03/21 00:06:31;;;;;;;3.90;1.70;;;;;;;;;;5016774;28;20448;-58
2023/03/21 00:08:57;;;;;;;2.10;1.60;;;;;;;;;;4986710;28;20439;-54
2023/03/21 00:11:23;;;;;;;2.70;1.80;;;;;;;;;;5009351;28;20440;-53
2023/03/21 00:13:49;;;;;;;2.80;1.83;;;;;;;;;;5013519;28;20949;-56
2023/03/21 00:16:16;;;;;;;2.53;2.13;;;;;;;;;;5019793;28;20438;-56
2023/03/21 00:18:52;;;;;;;2.10;1.90;;;;;;;;;;5000365;28;20443;-55
2023/03/21 00:21:19;;;;;;;6.73;1.80;;;;;;;;;;5019208;28;20570;-55
2023/03/21 00:23:45;;;;;;;2.10;1.70;;;;;;;;;;4988883;28;20443;-54
2023/03/21 00:26:11;;;;;;;3.53;2.03;;;;;;;;;;5013341;28;20454;-55
2023/03/21 00:28:37;;;;;;;3.43;2.17;;;;;;;;;;4989620;28;20457;-55
2023/03/21 00:31:03;;;;;;;2.30;1.63;;;;;;;;;;5018657;28;20504;-55
2023/03/21 00:33:29;;;;;;;2.57;1.83;;;;;;;;;;5013467;28;20455;-55
2023/03/21 00:35:55;;;;;;;2.90;2.00;;;;;;;;;;5020726;28;20439;-56
2023/03/21 00:38:21;;;;;;;2.17;1.80;;;;;;;;;;4960143;28;20649;-54
2023/03/21 00:40:48;;;;;;;4.80;2.00;;;;;;;;;;5021404;28;20855;-53
2023/03/21 00:43:16;;;;;;;5.47;2.43;;;;;;;;;;4990949;28;20571;-54
2023/03/21 00:45:42;;;;;;;4.13;1.80;;;;;;;;;;5019214;28;20550;-55
2023/03/21 00:48:08;;;;;;;3.17;1.87;;;;;;;;;;4979509;28;20443;-54
2023/03/21 00:50:35;;;;;;;3.03;2.17;;;;;;;;;;4977673;28;20458;-56
2023/03/21 00:53:01;;;;;;;2.90;2.37;;;;;;;;;;5003437;28;22461;-55
2023/03/21 00:55:27;;;;;;;4.47;1.90;;;;;;;;;;4984431;28;20442;-54
2023/03/21 00:57:53;;;;;;;3.60;2.20;;;;;;;;;;5010954;28;21568;-55
2023/03/21 01:00:19;;;;;;;4.20;1.90;;;;;;;;;;5002423;28;20884;-54
2023/03/21 01:02:57;;;;;;;2.93;1.87;;;;;;;;;;5009703;28;20444;-54
2023/03/21 01:06:02;;;;;;;2.33;1.60;;;;;;;;;;4976183;28;20442;-54
2023/03/21 01:08:12;;;;;;;3.13;2.23;;;;;;;;;;5007146;28;20431;-54
2023/03/21 01:10:39;;;;;;;2.23;1.90;;;;;;;;;;4994072;28;20478;-55
2023/03/21 01:13:05;;;;;;;4.00;2.37;;;;;;;;;;5007528;28;20432;-55
2023/03/21 01:15:31;;;;;;;3.70;2.07;;;;;;;;;;4981137;28;20447;-55
2023/03/21 01:17:57;;;;;;;3.17;1.83;;;;;;;;;;5016842;28;20455;-54
2023/03/21 01:20:23;;;;;;;3.13;2.17;;;;;;;;;;4971326;28;20497;-54
2023/03/21 01:22:49;;;;;;;5.17;2.40;;;;;;;;;;5007634;28;20530;-55
2023/03/21 01:25:15;;;;;;;4.00;2.20;;;;;;;;;;5015016;28;20470;-54
2023/03/21 01:27:41;;;;;;;2.87;1.90;;;;;;;;;;4986288;28;20435;-56
2023/03/21 01:30:07;;;;;;;2.50;1.87;;;;;;;;;;5018664;28;20455;-53
2023/03/21 01:32:33;;;;;;;2.20;1.77;;;;;;;;;;5015972;28;20444;-54
2023/03/21 01:34:59;;;;;;;2.90;1.93;;;;;;;;;;5017508;28;20508;-54
2023/03/21 01:37:25;;;;;;;5.03;2.30;;;;;;;;;;4986657;28;20837;-56
2023/03/21 01:39:51;;;;;;;4.70;2.20;;;;;;;;;;5009835;28;20486;-56
2023/03/21 01:42:18;;;;;;;3.07;2.33;;;;;;;;;;5014535;28;20447;-55
2023/03/21 01:44:52;;;;;;;4.70;1.83;;;;;;;;;;4989973;28;20458;-54
2023/03/21 01:47:18;;;;;;;3.63;2.03;;;;;;;;;;5014076;28;20474;-54
2023/03/21 01:49:44;;;;;;;2.87;2.30;;;;;;;;;;4989178;28;20549;-54
2023/03/21 01:52:11;;;;;;;3.40;2.07;;;;;;;;;;5024864;28;20323;-55
2023/03/21 01:54:37;;;;;;;5.60;1.90;;;;;;;;;;5003513;28;20874;-54
2023/03/21 01:57:05;;;;;;;3.10;2.27;;;;;;;;;;5035905;28;20504;-54
2023/03/21 01:59:40;;;;;;;2.57;2.00;;;;;;;;;;4991310;28;20489;-55
2023/03/21 02:02:08;;;;;;;6.20;1.70;;;;;;;;;;5019614;28;20790;-54
2023/03/21 02:04:35;;;;;;;2.20;1.60;;;;;;;;;;5008896;28;20447;-53
2023/03/21 02:07:06;;;;;;;2.27;1.67;;;;;;;;;;5017771;28;20431;-55
2023/03/21 02:09:32;;;;;;;2.40;2.00;;;;;;;;;;4983043;28;20472;-56
2023/03/21 02:11:59;;;;;;;3.13;1.97;;;;;;;;;;5013979;28;20497;-56
2023/03/21 02:14:25;;;;;;;2.53;2.30;;;;;;;;;;4986094;28;20660;-55
2023/03/21 02:16:53;;;;;;;2.63;2.00;;;;;;;;;;5007885;28;20447;-55
2023/03/21 02:19:37;;;;;;;2.57;2.03;;;;;;;;;;4987573;28;20562;-54
2023/03/21 02:22:04;;;;;;;4.13;1.97;;;;;;;;;;5012903;28;20446;-55
2023/03/21 02:24:34;;;;;;;3.73;2.10;;;;;;;;;;4980330;28;20497;-55
2023/03/21 02:27:03;;;;;;;2.20;1.90;;;;;;;;;;5006735;28;20450;-54
2023/03/21 02:29:45;;;;;;;2.60;2.20;;;;;;;;;;5019731;28;21030;-55
2023/03/21 02:32:30;;;;;;;2.50;1.90;;;;;;;;;;5024205;28;20487;-55
2023/03/21 02:35:05;;;;;;;2.90;1.97;;;;;;;;;;5012059;28;20435;-53
2023/03/21 02:37:45;;;;;;;4.67;2.27;;;;;;;;;;5011557;28;20475;-55
2023/03/21 02:40:12;;;;;;;1.97;1.77;;;;;;;;;;5033536;28;20521;-54
2023/03/21 02:42:48;;;;;;;3.80;2.13;;;;;;;;;;5019473;28;20991;-54
2023/03/21 02:45:20;;;;;;;6.50;2.30;;;;;;;;;;4988128;28;21174;-55
2023/03/21 02:47:51;;;;;;;3.47;1.73;;;;;;;;;;5020044;28;20438;-55
2023/03/21 02:50:32;;;;;;;4.57;2.10;;;;;;;;;;4985431;28;21274;-53
2023/03/21 02:52:58;;;;;;;3.67;2.27;;;;;;;;;;5023336;28;20434;-53
2023/03/21 02:55:24;;;;;;;7.97;2.00;;;;;;;;;;4985744;28;20439;-55
2023/03/21 02:57:51;;;;;;;4.50;2.20;;;;;;;;;;5015818;28;20461;-55
2023/03/21 03:00:18;;;;;;;3.10;2.23;;;;;;;;;;5016962;28;20479;-55
2023/03/21 03:02:44;;;;;;;3.97;2.70;;;;;;;;;;4991791;28;20458;-56
2023/03/21 03:05:14;;;;;;;3.00;2.00;;;;;;;;;;5021398;28;20463;-54
2023/03/21 03:07:46;;;;;;;2.77;1.87;;;;;;;;;;4990008;28;20448;-56
2023/03/21 03:10:20;;;;;;;2.27;1.83;;;;;;;;;;5021188;28;20451;-55
2023/03/21 03:13:06;;;;;;;3.20;2.17;;;;;;;;;;5020015;28;20447;-55
2023/03/21 03:15:37;;;;;;;3.07;2.17;;;;;;;;;;5011174;28;20474;-55
2023/03/21 03:18:18;;;;;;;5.43;2.20;;;;;;;;;;5009003;28;21323;-55
2023/03/21 03:20:56;;;;;;;4.77;2.53;;;;;;;;;;5003892;28;21411;-54
2023/03/21 03:23:28;;;;;;;3.30;2.30;;;;;;;;;;5020411;28;20451;-55
2023/03/21 03:26:05;;;;;;;3.83;2.50;;;;;;;;;;5013245;28;21124;-54
2023/03/21 03:28:34;;;;;;;3.03;2.20;;;;;;;;;;4990927;28;20474;-54
2023/03/21 03:31:00;;;;;;;2.53;2.00;;;;;;;;;;5007059;28;20447;-55
2023/03/21 03:33:26;;;;;;;3.83;2.40;;;;;;;;;;5023626;28;21191;-56
2023/03/21 03:35:52;;;;;;;4.83;2.57;;;;;;;;;;5006610;28;20202;-55
2023/03/21 03:38:18;;;;;;;5.13;2.63;;;;;;;;;;5018732;28;20439;-54
2023/03/21 03:40:45;;;;;;;5.40;2.70;;;;;;;;;;5004050;28;20281;-54
2023/03/21 03:43:13;;;;;;;3.07;2.37;;;;;;;;;;5025836;28;20423;-55
2023/03/21 03:45:42;;;;;;;3.77;2.50;;;;;;;;;;5031165;28;20482;-55
2023/03/21 03:48:14;;;;;;;2.77;2.17;;;;;;;;;;5040791;28;20464;-55
2023/03/21 03:50:43;;;;;;;2.87;2.60;;;;;;;;;;4987130;28;20542;-55
2023/03/21 03:53:22;;;;;;;3.13;2.50;;;;;;;;;;5027153;28;20471;-56
2023/03/21 03:55:48;;;;;;;4.10;2.17;;;;;;;;;;5007955;28;20435;-55
2023/03/21 03:58:24;;;;;;;6.73;2.60;;;;;;;;;;5018993;28;20521;-55
2023/03/21 04:00:56;;;;;;;3.00;2.70;;;;;;;;;;4979984;28;21117;-55
2023/03/21 04:03:22;;;;;;;4.83;2.57;;;;;;;;;;5014572;28;20438;-53
2023/03/21 04:05:49;;;;;;;2.17;1.97;;;;;;;;;;5003016;28;20827;-54
2023/03/21 04:08:15;;;;;;;4.10;2.90;;;;;;;;;;5027814;28;20439;-54
2023/03/21 04:10:41;;;;;;;2.90;2.30;;;;;;;;;;4996333;28;20472;-54
2023/03/21 04:13:07;;;;;;;6.07;2.63;;;;;;;;;;5011858;28;20482;-53
2023/03/21 04:15:33;;;;;;;3.60;2.70;;;;;;;;;;5009991;28;20913;-54
2023/03/21 04:17:59;;;;;;;7.97;3.33;;;;;;;;;;5010681;28;20462;-55
2023/03/21 04:20:25;;;;;;;4.60;2.40;;;;;;;;;;4978132;28;20975;-55
2023/03/21 04:22:53;;;;;;;2.93;2.20;;;;;;;;;;5009985;28;20443;-56
2023/03/21 04:25:18;;;;;;;3.77;2.67;;;;;;;;;;4979142;28;20647;-55
2023/03/21 04:27:47;;;;;;;2.67;2.30;;;;;;;;;;5019756;28;20512;-56
2023/03/21 04:30:13;;;;;;;3.13;2.80;;;;;;;;;;4989348;28;20807;-55
2023/03/21 04:32:39;;;;;;;3.57;2.90;;;;;;;;;;5013049;28;20807;-55
2023/03/21 04:35:07;;;;;;;4.10;2.73;;;;;;;;;;4974882;28;20956;-55
2023/03/21 04:37:33;;;;;;;3.20;2.43;;;;;;;;;;5023362;28;20489;-55
2023/03/21 04:39:59;;;;;;;5.77;2.57;;;;;;;;;;4983943;28;22211;-54
2023/03/21 04:42:25;;;;;;;3.77;3.37;;;;;;;;;;5020922;28;21847;-55
2023/03/21 04:44:51;;;;;;;2.83;2.20;;;;;;;;;;5015142;28;20538;-56
2023/03/21 04:47:19;;;;;;;3.37;2.90;;;;;;;;;;5019351;28;20525;-55
2023/03/21 04:49:46;;;;;;;3.33;2.63;;;;;;;;;;5009763;28;20439;-55
2023/03/21 04:52:13;;;;;;;3.87;2.63;;;;;;;;;;5021067;28;21466;-55
2023/03/21 04:54:38;;;;;;;3.30;2.57;;;;;;;;;;4993413;28;20446;-54
2023/03/21 04:57:04;;;;;;;3.70;2.77;;;;;;;;;;5018656;28;20447;-54
2023/03/21 04:59:30;;;;;;;4.17;2.90;;;;;;;;;;4976161;28;20221;-55
2023/03/21 05:01:57;;;;;;;8.83;3.37;;;;;;;;;;5012928;28;20239;-54
2023/03/21 05:04:26;;;;;;;5.00;2.60;;;;;;;;;;4994211;28;20447;-55
2023/03/21 05:06:52;;;;;;;3.77;3.47;;;;;;;;;;4988481;28;20778;-54
2023/03/21 05:09:19;;;;;;;4.07;3.20;;;;;;;;;;5009835;28;20455;-55
2023/03/21 05:11:45;;;;;;;6.40;3.60;;;;;;;;;;4983087;28;21161;-53
2023/03/21 05:14:11;;;;;;;5.30;3.30;;;;;;;;;;5010345;28;20485;-53
2023/03/21 05:16:43;;;;;;;5.50;3.83;;;;;;;;;;5000629;28;20510;-54
2023/03/21 05:19:12;;;;;;;3.63;3.30;;;;;;;;;;5007487;28;20435;-53
2023/03/21 05:21:42;;;;;;;6.00;2.53;;;;;;;;;;5014357;28;20439;-53
2023/03/21 05:24:11;;;;;;;3.40;2.87;;;;;;;;;;5010022;28;20440;-53
2023/03/21 05:26:37;;;;;;;6.40;3.80;;;;;;;;;;4993154;28;20630;-54
2023/03/21 05:29:03;;;;;;;3.73;3.00;;;;;;;;;;5020716;28;20431;-53
2023/03/21 05:31:29;;;;;;;3.90;2.70;;;;;;;;;;4979240;28;20972;-53
2023/03/21 05:33:55;;;;;;;3.77;3.30;;;;;;;;;;4991997;28;20435;-53
2023/03/21 05:36:21;;;;;;;6.10;3.10;;;;;;;;;;4986191;28;20969;-53
2023/03/21 05:38:47;;;;;;;4.50;2.57;;;;;;;;;;5018988;28;20476;-54
2023/03/21 05:41:13;;;;;;;8.93;3.30;;;;;;;;;;4982427;28;20474;-53
2023/03/21 05:43:39;;;;;;;3.87;2.97;;;;;;;;;;5011978;28;20181;-54
2023/03/21 05:46:06;;;;;;;3.10;2.53;;;;;;;;;;4991730;28;20439;-57
2023/03/21 05:48:32;;;;;;;4.07;2.60;;;;;;;;;;5014215;28;21256;-53
2023/03/21 05:50:58;;;;;;;7.70;3.67;;;;;;;;;;4993703;28;20508;-55
2023/03/21 05:53:24;;;;;;;3.50;2.77;;;;;;;;;;5018339;28;20432;-53
2023/03/21 05:55:50;;;;;;;4.73;3.00;;;;;;;;;;4991352;28;20455;-53
2023/03/21 05:58:15;;;;;;;2.90;2.60;;;;;;;;;;5011163;28;20478;-55
2023/03/21 06:00:41;;;;;;;4.43;3.53;;;;;;;;;;4986540;28;20597;-54
2023/03/21 06:03:07;;;;;;;4.53;3.50;;;;;;;;;;5010205;28;20439;-59
2023/03/21 06:05:33;;;;;;;3.50;2.87;;;;;;;;;;4985913;28;20447;-52
2023/03/21 06:07:59;;;;;;;3.63;3.00;;;;;;;;;;5017968;28;20435;-54
2023/03/21 06:10:25;;;;;;;4.10;3.00;;;;;;;;;;4985588;28;20428;-54
2023/03/21 06:12:51;;;;;;;5.37;3.47;;;;;;;;;;5006383;28;20466;-54
2023/03/21 06:15:17;;;;;;;4.13;3.20;;;;;;;;;;4934853;28;21007;-55
2023/03/21 06:17:43;;;;;;;8.63;3.10;;;;;;;;;;5014769;28;20439;-53
2023/03/21 06:20:15;;;;;;;7.17;2.90;;;;;;;;;;4989524;28;20485;-54
2023/03/21 06:22:41;;;;;;;3.53;3.17;;;;;;;;;;5007294;28;20442;-54
2023/03/21 06:25:07;;;;;;;7.00;3.23;;;;;;;;;;4996968;28;20447;-55
2023/03/21 06:27:34;;;;;;;3.90;2.90;;;;;;;;;;5016891;28;20435;-55
2023/03/21 06:30:00;;;;;;;4.90;3.47;;;;;;;;;;5018194;28;20526;-56
2023/03/21 06:32:26;;;;;;;4.57;2.80;;;;;;;;;;5019508;28;20534;-55
2023/03/21 06:34:52;;;;;;;5.50;3.20;;;;;;;;;;4999959;28;21136;-53
2023/03/21 06:37:18;;;;;;;6.63;4.17;;;;;;;;;;4998642;28;20443;-56
2023/03/21 06:39:45;;;;;;;4.93;3.63;;;;;;;;;;5007664;28;20478;-53
2023/03/21 06:42:11;;;;;;;3.33;3.03;;;;;;;;;;5001882;28;20447;-54
2023/03/21 06:44:38;;;;;;;5.27;3.43;;;;;;;;;;5008363;28;20860;-56
2023/03/21 06:47:04;;;;;;;5.17;3.77;;;;;;;;;;4992809;28;20473;-55
2023/03/21 06:49:30;;;;;;;4.53;3.00;;;;;;;;;;5011252;28;20964;-55
2023/03/21 06:51:56;;;;;;;5.80;3.07;;;;;;;;;;4999909;28;20530;-54
2023/03/21 06:54:22;;;;;;;7.10;3.30;;;;;;;;;;5016276;28;20885;-55
2023/03/21 06:56:48;;;;;;;4.03;2.80;;;;;;;;;;5015888;28;20442;-55
2023/03/21 06:59:14;;;;;;;5.70;3.07;;;;;;;;;;5021788;28;20509;-55
2023/03/21 07:01:41;;;;;;;4.13;3.43;;;;;;;;;;4991558;28;20466;-54
2023/03/21 07:04:07;;;;;;;4.00;2.60;;;;;;;;;;5018965;28;20429;-55
2023/03/21 07:06:33;;;;;;;3.80;3.10;;;;;;;;;;5009724;28;20945;-56
2023/03/21 07:09:01;;;;;;;6.50;2.93;;;;;;;;;;5030392;28;20447;-54
2023/03/21 07:11:27;;;;;;;6.63;3.87;;;;;;;;;;5002072;28;20434;-54
2023/03/21 07:13:53;;;;;;;5.40;3.23;;;;;;;;;;5024863;28;20442;-55
2023/03/21 07:16:20;;;;;;;2.80;2.50;;;;;;;;;;4975253;28;20581;-56
2023/03/21 07:18:46;;;;;;;4.40;3.60;;;;;;;;;;5027541;28;21022;-55
2023/03/21 07:21:12;;;;;;;3.93;3.20;;;;;;;;;;5014704;28;21154;-57
2023/03/21 07:23:38;;;;;;;2.70;2.50;;;;;;;;;;5034305;28;21118;-55
2023/03/21 07:26:04;;;;;;;2.80;1.80;;;;;;;;;;5026437;28;20443;-55
2023/03/21 07:28:31;;;;;;;3.30;2.23;;;;;;;;;;5026833;28;20964;-55
2023/03/21 07:30:57;;;;;;;3.37;2.10;;;;;;;;;;5003248;28;20585;-55
2023/03/21 07:33:24;;;;;;;2.50;2.00;;;;;;;;;;5025971;28;20717;-55
2023/03/21 07:35:50;;;;;;;4.40;2.90;;;;;;;;;;5005139;28;21451;-56
2023/03/21 07:38:16;;;;;;;2.90;1.70;;;;;;;;;;5021135;28;20975;-56
2023/03/21 07:40:43;;;;;;;3.60;2.40;;;;;;;;;;5013842;28;21051;-56
2023/03/21 07:43:09;;;;;;;2.63;1.70;;;;;;;;;;5019200;28;20434;-56
2023/03/21 07:46:11;;;;;;;3.00;2.30;;;;;;;;;;5021738;28;20450;-56
2023/03/21 07:48:38;;;;;;;6.60;2.23;;;;;;;;;;4980388;28;20477;-54
2023/03/21 07:51:05;;;;;;;3.73;1.67;;;;;;;;;;4997909;28;20478;-55
2023/03/21 07:53:31;;;;;;;3.00;1.77;;;;;;;;;;5003048;28;20505;-55
2023/03/21 07:55:57;;;;;;;2.20;1.87;;;;;;;;;;5023553;28;20942;-57
2023/03/21 07:58:23;;;;;;;2.50;1.60;;;;;;;;;;5023869;28;20822;-55
2023/03/21 08:00:49;;;;;;;3.40;2.23;;;;;;;;;;5024123;28;20475;-53
2023/03/21 08:03:15;;;;;;;2.67;2.00;;;;;;;;;;4972519;28;20443;-54
2023/03/21 08:05:43;;;;;;;2.70;2.03;;;;;;;;;;5024007;28;20450;-55
2023/03/21 08:08:09;;;;;;;2.53;1.90;;;;;;;;;;4995213;28;20462;-57
2023/03/21 08:10:35;;;;;;;3.00;1.73;;;;;;;;;;5025547;28;20431;-57
2023/03/21 08:13:01;;;;;;;2.80;1.67;;;;;;;;;;4997895;28;20439;-52
2023/03/21 08:15:27;;;;;;;2.07;1.67;;;;;;;;;;5019082;28;21003;-56
2023/03/21 08:17:57;;;;;;;3.63;1.87;;;;;;;;;;4995060;28;20440;-57
2023/03/21 08:20:23;;;;;;;2.73;2.23;;;;;;;;;;4994392;28;20529;-54
2023/03/21 08:22:49;;;;;;;3.03;2.00;;;;;;;;;;5040221;28;20441;-54
2023/03/21 08:25:16;;;;;;;2.30;2.10;;;;;;;;;;5020901;28;20431;-53
2023/03/21 08:27:43;;;;;;;4.93;2.20;;;;;;;;;;5026023;28;20446;-54
2023/03/21 08:30:09;;;;;;;3.40;2.20;;;;;;;;;;5019037;28;20473;-54
2023/03/21 08:32:37;;;;;;;2.60;1.63;;;;;;;;;;5023577;28;20427;-55
2023/03/21 08:35:03;;;;;;;5.40;2.03;;;;;;;;;;4995781;28;20466;-55
2023/03/21 08:37:29;;;;;;;2.70;1.87;;;;;;;;;;5023140;28;20501;-55
2023/03/21 08:39:55;;;;;;;3.30;2.00;;;;;;;;;;4998159;28;20481;-55
2023/03/21 08:42:22;;;;;;;3.57;2.10;;;;;;;;;;5024779;28;20447;-54
2023/03/21 08:44:48;;;;;;;4.37;1.67;;;;;;;;;;5011692;28;20208;-55
2023/03/21 08:47:14;;;;;;;2.40;1.80;;;;;;;;;;5023070;28;20986;-54
2023/03/21 08:49:41;;;;;;;7.03;2.63;;;;;;;;;;4977639;28;20464;-57
2023/03/21 08:52:08;;;;;;;4.23;1.60;;;;;;;;;;5022273;28;20535;-55
2023/03/21 08:54:34;;;;;;;3.67;1.70;;;;;;;;;;5020452;28;20423;-55
2023/03/21 08:57:00;;;;;;;2.23;1.60;;;;;;;;;;5021269;28;20999;-56
2023/03/21 08:59:26;;;;;;;1.53;1.30;;;;;;;;;;5001075;28;20504;-55
2023/03/21 09:01:52;;;;;;;8.93;1.80;;;;;;;;;;5015741;28;20447;-54
2023/03/21 09:04:19;;;;;;;1.90;1.53;;;;;;;;;;5012487;28;23285;-55
2023/03/21 09:06:47;;;;;;;1.97;1.40;;;;;;;;;;5010894;28;20447;-56
2023/03/21 09:09:14;;;;;;;2.87;1.50;;;;;;;;;;5014417;28;21551;-55
2023/03/21 09:11:40;;;;;;;2.30;1.50;;;;;;;;;;4999824;28;20483;-54
2023/03/21 09:14:06;;;;;;;3.73;2.13;;;;;;;;;;5013996;28;20938;-54
2023/03/21 09:16:32;;;;;;;3.00;1.60;;;;;;;;;;5018647;28;20275;-57
2023/03/21 09:19:08;;;;;;;4.67;1.70;;;;;;;;;;5013687;28;20531;-57
2023/03/21 09:21:34;;;;;;;1.50;1.10;;;;;;;;;;4997628;28;20486;-55
2023/03/21 09:24:01;;;;;;;3.10;1.40;;;;;;;;;;5024779;28;20427;-55
2023/03/21 09:26:27;;;;;;;2.83;1.43;;;;;;;;;;5015304;28;20514;-53
2023/03/21 09:28:54;;;;;;;2.60;1.90;;;;;;;;;;5019482;28;20446;-54
2023/03/21 09:31:23;;;;;;;2.30;1.50;;;;;;;;;;5018655;28;21042;-55
2023/03/21 09:33:50;;;;;;;2.93;1.33;;;;;;;;;;5027910;28;20425;-54
2023/03/21 09:36:20;;;;;;;3.77;1.43;;;;;;;;;;4998633;28;20443;-55
2023/03/21 09:38:47;;;;;;;6.97;1.77;;;;;;;;;;5017453;28;20432;-55
2023/03/21 09:41:31;;;;;;;2.70;1.30;;;;;;;;;;4994471;28;20554;-55
2023/03/21 09:44:04;;;;;;;1.60;1.20;;;;;;;;;;5018900;28;20525;-54
2023/03/21 09:46:30;;;;;;;2.77;1.50;;;;;;;;;;5000394;28;21283;-55
2023/03/21 09:49:00;;;;;;;2.70;1.50;;;;;;;;;;5011879;28;20438;-54
2023/03/21 09:51:27;;;;;;;3.43;1.60;;;;;;;;;;4970749;28;20447;-56
2023/03/21 09:53:54;;;;;;;2.80;1.47;;;;;;;;;;5024838;28;20442;-56
2023/03/21 09:56:20;;;;;;;2.27;1.47;;;;;;;;;;5017640;28;20474;-55
2023/03/21 09:58:52;;;;;;;2.00;1.30;;;;;;;;;;5021471;28;20810;-56
2023/03/21 10:01:26;;;;;;;4.47;2.10;;;;;;;;;;5010730;28;20573;-54
2023/03/21 10:03:55;;;;;;;1.83;1.53;;;;;;;;;;5034259;28;21005;-54
2023/03/21 10:06:27;;;;;;;2.23;1.30;;;;;;;;;;4996323;28;22415;-55
2023/03/21 10:08:54;;;;;;;4.10;1.77;;;;;;;;;;5019111;28;20465;-55
2023/03/21 10:11:28;;;;;;;2.60;1.57;;;;;;;;;;4996488;28;20446;-55
2023/03/21 10:13:54;;;;;;;1.93;1.30;;;;;;;;;;5017671;28;20439;-55
2023/03/21 10:16:26;;;;;;;2.70;1.10;;;;;;;;;;4994450;28;20512;-55
2023/03/21 10:18:52;;;;;;;2.00;1.20;;;;;;;;;;5020733;28;20446;-55
2023/03/21 10:21:26;;;;;;;2.20;1.10;;;;;;;;;;5029069;28;20479;-55
2023/03/21 10:23:53;;;;;;;1.80;1.50;;;;;;;;;;5018745;28;20529;-55
2023/03/21 10:26:19;;;;;;;4.70;1.43;;;;;;;;;;4978048;28;20447;-56
2023/03/21 10:28:47;;;;;;;4.20;1.40;;;;;;;;;;5028331;28;20565;-53
2023/03/21 10:31:15;;;;;;;2.83;1.20;;;;;;;;;;4995179;28;20451;-55
2023/03/21 10:33:42;;;;;;;1.80;1.50;;;;;;;;;;5026185;28;20449;-54
2023/03/21 10:36:09;;;;;;;2.47;1.40;;;;;;;;;;4992529;28;20436;-55
2023/03/21 10:38:35;;;;;;;1.77;1.23;;;;;;;;;;5023563;28;20439;-55
2023/03/21 10:41:01;;;;;;;3.93;1.90;;;;;;;;;;5003792;28;20471;-54
2023/03/21 10:43:27;;;;;;;2.90;1.27;;;;;;;;;;5031489;28;20439;-54
2023/03/21 10:45:53;;;;;;;2.20;1.63;;;;;;;;;;4998247;28;20192;-56
2023/03/21 10:48:19;;;;;;;2.90;1.40;;;;;;;;;;5030476;28;20431;-56
2023/03/21 10:50:46;;;;;;;2.03;1.50;;;;;;;;;;5022220;28;20699;-56
2023/03/21 10:53:17;;;;;;;2.50;1.40;;;;;;;;;;5027739;28;20430;-56
2023/03/21 10:55:54;;;;;;;3.00;1.40;;;;;;;;;;5015233;28;21145;-56
2023/03/21 10:58:26;;;;;;;1.97;1.13;;;;;;;;;;5000967;28;20431;-55
2023/03/21 11:00:54;;;;;;;2.17;1.37;;;;;;;;;;5027179;28;21004;-56
2023/03/21 11:03:21;;;;;;;2.00;1.10;;;;;;;;;;5018104;28;20559;-56
2023/03/21 11:05:47;;;;;;;1.50;1.00;;;;;;;;;;5027838;28;20447;-56
2023/03/21 11:08:14;;;;;;;1.67;1.20;;;;;;;;;;5003180;28;20497;-55
2023/03/21 11:11:00;;;;;;;1.93;1.27;;;;;;;;;;5040879;28;20190;-55
2023/03/21 11:13:27;;;;;;;2.47;1.40;;;;;;;;;;4976470;28;20981;-56
2023/03/21 11:15:54;;;;;;;3.00;1.37;;;;;;;;;;5020735;28;20523;-55
2023/03/21 11:18:24;;;;;;;3.53;1.50;;;;;;;;;;4996960;28;20512;-54
2023/03/21 11:20:51;;;;;;;2.50;1.10;;;;;;;;;;5026957;28;20479;-56
2023/03/21 11:23:17;;;;;;;4.87;1.30;;;;;;;;;;5015075;28;20441;-55
2023/03/21 11:25:43;;;;;;;1.87;1.23;;;;;;;;;;5023425;28;20550;-55
2023/03/21 11:28:13;;;;;;;1.43;1.10;;;;;;;;;;4983300;28;24357;-55
2023/03/21 11:30:48;;;;;;;2.13;1.10;;;;;;;;;;5020254;28;20449;-56
2023/03/21 11:33:15;;;;;;;3.07;1.40;;;;;;;;;;5009453;28;20968;-55
2023/03/21 11:35:42;;;;;;;2.30;1.30;;;;;;;;;;5021937;28;20450;-55
2023/03/21 11:38:23;;;;;;;2.73;1.10;;;;;;;;;;5005477;28;20520;-56
2023/03/21 11:40:53;;;;;;;2.57;1.47;;;;;;;;;;5015326;28;20500;-57
2023/03/21 11:43:19;;;;;;;2.50;1.30;;;;;;;;;;5020682;28;21788;-54
2023/03/21 11:46:04;;;;;;;1.90;1.23;;;;;;;;;;5015782;28;20435;-56
2023/03/21 11:48:40;;;;;;;1.77;0.93;;;;;;;;;;5001395;28;20484;-54
2023/03/21 11:51:24;;;;;;;3.50;1.17;;;;;;;;;;5025369;28;20955;-54
2023/03/21 11:53:59;;;;;;;3.73;1.53;;;;;;;;;;4997322;28;20465;-55
2023/03/21 11:56:27;;;;;;;3.40;1.20;;;;;;;;;;5030812;28;20450;-53
2023/03/21 11:59:12;;;;;;;2.87;1.23;;;;;;;;;;4987390;28;21175;-55
2023/03/21 12:01:56;;;;;;;2.47;1.20;;;;;;;;;;5029297;28;20573;-54
2023/03/21 12:04:51;;;;;;;1.90;1.40;;;;;;;;;;5021811;28;20613;-56
2023/03/21 12:07:23;;;;;;;2.73;1.37;;;;;;;;;;5016272;28;20427;-55
2023/03/21 12:10:09;;;;;;;2.97;1.80;;;;;;;;;;5014943;28;20446;-55
2023/03/21 12:12:41;;;;;;;1.80;1.27;;;;;;;;;;5020958;28;20431;-55
2023/03/21 12:15:22;;;;;;;2.00;1.10;;;;;;;;;;5011695;28;20476;-56
2023/03/21 12:17:48;;;;;;;1.83;1.13;;;;;;;;;;5025834;28;20498;-55
2023/03/21 12:20:26;;;;;;;1.73;0.97;;;;;;;;;;5002384;28;20483;-57
2023/03/21 12:23:13;;;;;;;1.60;1.00;;;;;;;;;;5008196;28;20445;-56
2023/03/21 12:25:56;;;;;;;2.40;1.40;;;;;;;;;;5016107;28;21031;-58
2023/03/21 12:28:22;;;;;;;1.97;1.27;;;;;;;;;;5021361;28;20478;-55
2023/03/21 12:31:00;;;;;;;1.90;1.30;;;;;;;;;;5021692;28;20802;-55
2023/03/21 12:33:42;;;;;;;4.50;1.73;;;;;;;;;;5011225;28;20478;-55
2023/03/21 12:36:09;;;;;;;3.87;1.67;;;;;;;;;;5018791;28;20944;-56
2023/03/21 12:38:55;;;;;;;2.40;1.70;;;;;;;;;;5021219;28;20439;-56
2023/03/21 12:41:39;;;;;;;2.63;1.07;;;;;;;;;;5015262;28;20478;-56
2023/03/21 12:44:15;;;;;;;3.93;1.23;;;;;;;;;;5010535;28;20509;-56
2023/03/21 12:46:47;;;;;;;2.67;1.30;;;;;;;;;;5004894;28;20964;-55
2023/03/21 12:49:13;;;;;;;1.90;1.60;;;;;;;;;;5009507;28;20443;-55
2023/03/21 12:51:40;;;;;;;3.50;1.20;;;;;;;;;;5004619;28;20431;-55
2023/03/21 12:54:15;;;;;;;2.30;1.50;;;;;;;;;;5015035;28;21547;-55
2023/03/21 12:56:45;;;;;;;1.87;1.13;;;;;;;;;;5026515;28;20447;-56
2023/03/21 12:59:17;;;;;;;2.67;1.50;;;;;;;;;;5018666;28;20439;-55
2023/03/21 13:01:43;;;;;;;2.23;1.20;;;;;;;;;;5012091;28;20463;-55
2023/03/21 13:04:35;;;;;;;1.73;1.43;;;;;;;;;;5017827;28;21288;-55
2023/03/21 13:07:03;;;;;;;2.67;1.43;;;;;;;;;;5000592;28;21019;-56
2023/03/21 13:09:34;;;;;;;2.53;1.47;;;;;;;;;;5043854;28;20447;-55
2023/03/21 13:12:05;;;;;;;2.13;1.60;;;;;;;;;;4998093;28;20444;-55
2023/03/21 13:14:32;;;;;;;4.50;1.40;;;;;;;;;;5023215;28;20427;-55
2023/03/21 13:17:00;;;;;;;2.40;1.57;;;;;;;;;;5002216;28;20476;-55
2023/03/21 13:19:26;;;;;;;1.93;1.47;;;;;;;;;;5039750;28;20431;-55
2023/03/21 13:21:55;;;;;;;3.27;1.60;;;;;;;;;;4995358;28;20473;-56
2023/03/21 13:24:40;;;;;;;1.97;1.27;;;;;;;;;;5022614;28;20458;-55
2023/03/21 13:27:06;;;;;;;2.20;1.50;;;;;;;;;;5001543;28;20492;-55
2023/03/21 13:29:39;;;;;;;3.63;1.40;;;;;;;;;;5024757;28;20522;-54
2023/03/21 13:32:07;;;;;;;2.90;1.27;;;;;;;;;;5012083;28;20478;-56
2023/03/21 13:34:33;;;;;;;2.13;1.30;;;;;;;;;;5026553;28;20454;-55
2023/03/21 13:36:59;;;;;;;1.83;1.30;;;;;;;;;;4988886;28;20858;-55
2023/03/21 13:39:26;;;;;;;3.30;1.80;;;;;;;;;;5021621;28;20523;-54
2023/03/21 13:41:53;;;;;;;2.13;1.50;;;;;;;;;;5019804;28;20447;-56
2023/03/21 13:44:31;;;;;;;2.63;1.50;;;;;;;;;;5024025;28;20427;-55
2023/03/21 13:47:04;;;;;;;2.30;1.50;;;;;;;;;;5000266;28;20529;-55
2023/03/21 13:49:31;;;;;;;3.00;1.30;;;;;;;;;;5039239;28;20436;-55
2023/03/21 13:51:57;;;;;;;2.50;1.53;;;;;;;;;;5001685;28;20482;-55
2023/03/21 13:54:24;;;;;;;2.70;1.60;;;;;;;;;;5001640;28;20465;-54
2023/03/21 13:56:51;;;;;;;2.80;1.57;;;;;;;;;;5016283;28;20456;-54
2023/03/21 13:59:18;;;;;;;2.13;1.50;;;;;;;;;;4995849;28;21204;-55
2023/03/21 14:02:02;;;;;;;2.23;1.27;;;;;;;;;;5017363;28;20479;-55
2023/03/21 14:04:31;;;;;;;2.80;1.23;;;;;;;;;;4989648;28;20493;-54
2023/03/21 14:06:57;;;;;;;2.00;1.70;;;;;;;;;;5022026;28;20427;-55
2023/03/21 14:09:39;;;;;;;2.57;1.40;;;;;;;;;;5010605;28;20439;-55
2023/03/21 14:12:10;;;;;;;5.30;1.50;;;;;;;;;;5014116;28;20808;-55
2023/03/21 14:14:46;;;;;;;2.27;1.33;;;;;;;;;;5016748;28;20839;-54
2023/03/21 14:17:21;;;;;;;4.93;1.40;;;;;;;;;;5019990;28;20450;-55
2023/03/21 14:19:50;;;;;;;2.03;1.67;;;;;;;;;;5014096;28;20584;-56
2023/03/21 14:22:17;;;;;;;2.60;1.40;;;;;;;;;;5021759;28;20431;-56
2023/03/21 14:24:47;;;;;;;2.50;1.90;;;;;;;;;;5017226;28;20457;-55
2023/03/21 14:27:13;;;;;;;3.57;2.00;;;;;;;;;;5006015;28;20489;-55
2023/03/21 14:29:39;;;;;;;5.70;2.20;;;;;;;;;;5020190;28;20431;-56
2023/03/21 14:32:05;;;;;;;2.80;1.40;;;;;;;;;;5034969;28;20522;-55
2023/03/21 14:34:31;;;;;;;2.63;1.47;;;;;;;;;;5021299;28;20538;-55
2023/03/21 14:36:57;;;;;;;3.03;1.60;;;;;;;;;;5016055;28;20477;-55
2023/03/21 14:39:25;;;;;;;2.90;1.67;;;;;;;;;;5020927;28;20978;-54
2023/03/21 14:41:52;;;;;;;2.63;1.67;;;;;;;;;;4966094;28;20489;-56
2023/03/21 14:44:23;;;;;;;1.80;1.23;;;;;;;;;;5024944;28;20449;-54
2023/03/21 14:46:49;;;;;;;4.90;2.00;;;;;;;;;;5030665;28;20458;-56
2023/03/21 14:49:19;;;;;;;4.40;1.70;;;;;;;;;;5017983;28;20528;-56
2023/03/21 14:51:45;;;;;;;4.93;1.87;;;;;;;;;;4994478;28;20519;-55
2023/03/21 14:54:16;;;;;;;3.60;1.50;;;;;;;;;;5019629;28;20462;-55